Luce Township, Michigan
Current Conditions -  °F | °C
As of 4:53 PM on Wednesday 22 Oct 2014 (Local Time) from KARB Reporting Station
Few Clouds Few Clouds  
Wind Chill: 55°   Ceiling: Unl
Heat Index: 55°   Visibility: NA
Dew Point: 39°   Wind: 6mph
Humidity: 55%   Direction: 330°NNW
Pressure: 30.28"   Gusts: NA
Location:  42.3129°N, 84.0322°W
Report Text: KARB 222053Z 33005KT FEW033 13/04 A3028 RMK AO2 SLP257 T01280039 56009 $
Loading
Personal Weather Stations






























Interactive Weather Map
Tropical Storm Tracking
New forecast layout! Learn more

10-Day Weather Forecast

Advertisements
Track Severe Weather on mobile